sensor_id;sensor_type;location;lat;lon;timestamp;temperature;humidity
52471;DHT22;38382;53.160;7.026;2023-02-15T00:01:05;0.80;99.90
52471;DHT22;38382;53.160;7.026;2023-02-15T00:03:31;2.50;99.90
52471;DHT22;38382;53.160;7.026;2023-02-15T00:05:57;0.80;99.90
52471;DHT22;38382;53.160;7.026;2023-02-15T00:08:23;0.80;99.90
52471;DHT22;38382;53.160;7.026;2023-02-15T00:10:49;0.70;99.90
52471;DHT22;38382;53.160;7.026;2023-02-15T00:13:15;2.10;99.90
52471;DHT22;38382;53.160;7.026;2023-02-15T00:15:40;1.70;99.90
52471;DHT22;38382;53.160;7.026;2023-02-15T00:18:06;1.10;99.90
52471;DHT22;38382;53.160;7.026;2023-02-15T00:20:32;0.60;99.90
52471;DHT22;38382;53.160;7.026;2023-02-15T00:22:58;1.90;99.90
52471;DHT22;38382;53.160;7.026;2023-02-15T00:25:24;0.50;99.90
52471;DHT22;38382;53.160;7.026;2023-02-15T00:27:50;2.30;99.90
52471;DHT22;38382;53.160;7.026;2023-02-15T00:30:17;0.80;99.90
52471;DHT22;38382;53.160;7.026;2023-02-15T00:32:42;0.40;99.90
52471;DHT22;38382;53.160;7.026;2023-02-15T00:35:08;0.60;99.90
52471;DHT22;38382;53.160;7.026;2023-02-15T00:37:35;0.60;99.90
52471;DHT22;38382;53.160;7.026;2023-02-15T00:40:01;2.00;99.90
52471;DHT22;38382;53.160;7.026;2023-02-15T00:42:26;0.30;99.90
52471;DHT22;38382;53.160;7.026;2023-02-15T00:44:52;0.30;99.90
52471;DHT22;38382;53.160;7.026;2023-02-15T00:47:18;1.40;99.90
52471;DHT22;38382;53.160;7.026;2023-02-15T00:49:43;1.90;99.90
52471;DHT22;38382;53.160;7.026;2023-02-15T00:52:09;1.70;99.90
52471;DHT22;38382;53.160;7.026;2023-02-15T00:54:35;2.00;99.90
52471;DHT22;38382;53.160;7.026;2023-02-15T00:57:01;1.30;99.90
52471;DHT22;38382;53.160;7.026;2023-02-15T00:59:26;1.70;99.90
52471;DHT22;38382;53.160;7.026;2023-02-15T01:01:52;0.10;99.90
52471;DHT22;38382;53.160;7.026;2023-02-15T01:04:18;2.00;99.90
52471;DHT22;38382;53.160;7.026;2023-02-15T01:06:43;0.10;99.90
52471;DHT22;38382;53.160;7.026;2023-02-15T01:09:09;1.50;99.90
52471;DHT22;38382;53.160;7.026;2023-02-15T01:11:35;1.30;99.90
52471;DHT22;38382;53.160;7.026;2023-02-15T01:14:01;0.10;99.90
52471;DHT22;38382;53.160;7.026;2023-02-15T01:16:29;1.30;99.90
52471;DHT22;38382;53.160;7.026;2023-02-15T01:18:55;0.10;99.90
52471;DHT22;38382;53.160;7.026;2023-02-15T01:21:23;0.10;99.90
52471;DHT22;38382;53.160;7.026;2023-02-15T01:23:49;0.10;99.90
52471;DHT22;38382;53.160;7.026;2023-02-15T01:26:16;1.20;99.90
52471;DHT22;38382;53.160;7.026;2023-02-15T01:28:41;1.70;99.90
52471;DHT22;38382;53.160;7.026;2023-02-15T01:31:13;1.10;99.90
52471;DHT22;38382;53.160;7.026;2023-02-15T01:33:39;0.20;99.90
52471;DHT22;38382;53.160;7.026;2023-02-15T01:36:05;1.30;99.90
52471;DHT22;38382;53.160;7.026;2023-02-15T01:38:31;-0.10;99.90
52471;DHT22;38382;53.160;7.026;2023-02-15T01:40:57;1.80;99.90
52471;DHT22;38382;53.160;7.026;2023-02-15T01:43:44;1.70;99.90
52471;DHT22;38382;53.160;7.026;2023-02-15T01:46:13;-0.10;99.90
52471;DHT22;38382;53.160;7.026;2023-02-15T01:48:48;0.10;99.90
52471;DHT22;38382;53.160;7.026;2023-02-15T01:51:18;-0.20;99.90
52471;DHT22;38382;53.160;7.026;2023-02-15T01:54:18;-0.20;99.90
52471;DHT22;38382;53.160;7.026;2023-02-15T01:56:47;-0.20;99.90
52471;DHT22;38382;53.160;7.026;2023-02-15T01:59:17;-0.30;99.90
52471;DHT22;38382;53.160;7.026;2023-02-15T02:01:45;1.00;99.90
52471;DHT22;38382;53.160;7.026;2023-02-15T02:07:06;-0.30;99.90
52471;DHT22;38382;53.160;7.026;2023-02-15T02:09:35;0.70;99.90
52471;DHT22;38382;53.160;7.026;2023-02-15T02:12:01;0.10;99.90
52471;DHT22;38382;53.160;7.026;2023-02-15T02:14:27;1.30;99.90
52471;DHT22;38382;53.160;7.026;2023-02-15T02:17:03;-0.30;99.90
52471;DHT22;38382;53.160;7.026;2023-02-15T02:28:13;-0.40;99.90
52471;DHT22;38382;53.160;7.026;2023-02-15T02:33:46;-0.40;99.90
52471;DHT22;38382;53.160;7.026;2023-02-15T02:41:20;-0.40;99.90
52471;DHT22;38382;53.160;7.026;2023-02-15T02:46:44;-0.50;99.90
52471;DHT22;38382;53.160;7.026;2023-02-15T02:49:12;0.00;99.90
52471;DHT22;38382;53.160;7.026;2023-02-15T02:51:37;-0.20;99.90
52471;DHT22;38382;53.160;7.026;2023-02-15T02:54:05;-0.20;99.90
52471;DHT22;38382;53.160;7.026;2023-02-15T02:56:46;-0.60;99.90
52471;DHT22;38382;53.160;7.026;2023-02-15T03:01:48;-0.50;99.90
52471;DHT22;38382;53.160;7.026;2023-02-15T03:04:22;0.40;99.90
52471;DHT22;38382;53.160;7.026;2023-02-15T03:09:28;1.10;99.90
52471;DHT22;38382;53.160;7.026;2023-02-15T03:12:00;0.70;99.90
52471;DHT22;38382;53.160;7.026;2023-02-15T03:14:29;-0.70;99.90
52471;DHT22;38382;53.160;7.026;2023-02-15T03:16:56;0.60;99.90
52471;DHT22;38382;53.160;7.026;2023-02-15T03:19:26;-0.40;99.90
52471;DHT22;38382;53.160;7.026;2023-02-15T03:22:00;0.80;99.90
52471;DHT22;38382;53.160;7.026;2023-02-15T03:24:35;-0.80;99.90
52471;DHT22;38382;53.160;7.026;2023-02-15T03:27:06;-0.80;99.90
52471;DHT22;38382;53.160;7.026;2023-02-15T03:29:34;0.80;99.90
52471;DHT22;38382;53.160;7.026;2023-02-15T03:32:03;-0.10;99.90
52471;DHT22;38382;53.160;7.026;2023-02-15T03:34:30;-0.80;99.90
52471;DHT22;38382;53.160;7.026;2023-02-15T03:37:00;-0.70;99.90
52471;DHT22;38382;53.160;7.026;2023-02-15T03:39:36;-0.80;99.90
52471;DHT22;38382;53.160;7.026;2023-02-15T03:42:16;0.80;99.90
52471;DHT22;38382;53.160;7.026;2023-02-15T03:44:59;0.60;99.90
52471;DHT22;38382;53.160;7.026;2023-02-15T03:47:31;-0.80;99.90
52471;DHT22;38382;53.160;7.026;2023-02-15T03:50:02;-0.80;99.90
52471;DHT22;38382;53.160;7.026;2023-02-15T03:52:29;0.40;99.90
52471;DHT22;38382;53.160;7.026;2023-02-15T03:54:59;-0.70;99.90
52471;DHT22;38382;53.160;7.026;2023-02-15T03:57:28;-0.30;99.90
52471;DHT22;38382;53.160;7.026;2023-02-15T04:00:19;-0.80;99.90
52471;DHT22;38382;53.160;7.026;2023-02-15T04:05:35;-0.70;99.90
52471;DHT22;38382;53.160;7.026;2023-02-15T04:08:01;-0.70;99.90
52471;DHT22;38382;53.160;7.026;2023-02-15T04:10:27;1.00;99.90
52471;DHT22;38382;53.160;7.026;2023-02-15T04:13:11;0.70;99.90
52471;DHT22;38382;53.160;7.026;2023-02-15T04:15:37;-0.70;99.90
52471;DHT22;38382;53.160;7.026;2023-02-15T04:18:21;0.60;99.90
52471;DHT22;38382;53.160;7.026;2023-02-15T04:20:47;-0.30;99.90
52471;DHT22;38382;53.160;7.026;2023-02-15T04:23:31;-0.60;99.90
52471;DHT22;38382;53.160;7.026;2023-02-15T04:26:16;0.50;99.90
52471;DHT22;38382;53.160;7.026;2023-02-15T04:28:41;1.30;99.90
52471;DHT22;38382;53.160;7.026;2023-02-15T04:31:07;-0.60;99.90
52471;DHT22;38382;53.160;7.026;2023-02-15T04:33:33;0.40;99.90
52471;DHT22;38382;53.160;7.026;2023-02-15T04:36:02;-0.70;99.90
52471;DHT22;38382;53.160;7.026;2023-02-15T04:38:28;-0.50;99.90
52471;DHT22;38382;53.160;7.026;2023-02-15T04:40:53;-0.70;99.90
52471;DHT22;38382;53.160;7.026;2023-02-15T04:43:19;1.10;99.90
52471;DHT22;38382;53.160;7.026;2023-02-15T04:45:49;-1.10;99.90
52471;DHT22;38382;53.160;7.026;2023-02-15T04:48:16;0.90;99.90
52471;DHT22;38382;53.160;7.026;2023-02-15T04:50:44;1.40;99.90
52471;DHT22;38382;53.160;7.026;2023-02-15T04:53:10;-0.70;99.90
52471;DHT22;38382;53.160;7.026;2023-02-15T04:55:36;1.50;99.90
52471;DHT22;38382;53.160;7.026;2023-02-15T04:58:02;0.80;99.90
52471;DHT22;38382;53.160;7.026;2023-02-15T05:00:27;1.20;99.90
52471;DHT22;38382;53.160;7.026;2023-02-15T05:02:53;0.00;99.90
52471;DHT22;38382;53.160;7.026;2023-02-15T05:05:19;0.40;99.90
52471;DHT22;38382;53.160;7.026;2023-02-15T05:07:45;-0.40;99.90
52471;DHT22;38382;53.160;7.026;2023-02-15T05:12:36;-0.70;99.90
52471;DHT22;38382;53.160;7.026;2023-02-15T05:15:02;-1.00;99.90
52471;DHT22;38382;53.160;7.026;2023-02-15T05:17:28;-0.70;99.90
52471;DHT22;38382;53.160;7.026;2023-02-15T05:19:54;0.80;99.90
52471;DHT22;38382;53.160;7.026;2023-02-15T05:24:46;-0.70;99.90
52471;DHT22;38382;53.160;7.026;2023-02-15T05:27:30;1.30;99.90
52471;DHT22;38382;53.160;7.026;2023-02-15T05:30:14;-0.40;99.90
52471;DHT22;38382;53.160;7.026;2023-02-15T05:32:40;-0.40;99.90
52471;DHT22;38382;53.160;7.026;2023-02-15T05:35:07;-0.60;99.90
52471;DHT22;38382;53.160;7.026;2023-02-15T05:37:33;1.90;99.90
52471;DHT22;38382;53.160;7.026;2023-02-15T05:39:59;0.00;99.90
52471;DHT22;38382;53.160;7.026;2023-02-15T05:42:24;1.50;99.90
52471;DHT22;38382;53.160;7.026;2023-02-15T05:44:50;0.00;99.90
52471;DHT22;38382;53.160;7.026;2023-02-15T05:47:16;1.70;99.90
52471;DHT22;38382;53.160;7.026;2023-02-15T05:49:41;2.30;99.90
52471;DHT22;38382;53.160;7.026;2023-02-15T05:52:07;0.80;99.90
52471;DHT22;38382;53.160;7.026;2023-02-15T05:54:33;2.00;99.90
52471;DHT22;38382;53.160;7.026;2023-02-15T05:56:59;0.30;99.90
52471;DHT22;38382;53.160;7.026;2023-02-15T05:59:25;1.60;99.90
52471;DHT22;38382;53.160;7.026;2023-02-15T06:01:51;2.00;99.90
52471;DHT22;38382;53.160;7.026;2023-02-15T06:04:16;1.50;99.90
52471;DHT22;38382;53.160;7.026;2023-02-15T06:07:00;-1.30;99.90
52471;DHT22;38382;53.160;7.026;2023-02-15T06:09:26;1.40;99.90
52471;DHT22;38382;53.160;7.026;2023-02-15T06:11:52;1.80;99.90
52471;DHT22;38382;53.160;7.026;2023-02-15T06:14:17;0.00;99.90
52471;DHT22;38382;53.160;7.026;2023-02-15T06:16:44;0.10;99.90
52471;DHT22;38382;53.160;7.026;2023-02-15T06:19:09;0.10;99.90
52471;DHT22;38382;53.160;7.026;2023-02-15T06:21:35;0.90;99.90
52471;DHT22;38382;53.160;7.026;2023-02-15T06:24:01;1.50;99.90
52471;DHT22;38382;53.160;7.026;2023-02-15T06:26:26;2.40;99.90
52471;DHT22;38382;53.160;7.026;2023-02-15T06:28:52;2.00;99.90
52471;DHT22;38382;53.160;7.026;2023-02-15T06:31:18;0.50;99.90
52471;DHT22;38382;53.160;7.026;2023-02-15T06:33:43;1.50;99.90
52471;DHT22;38382;53.160;7.026;2023-02-15T06:36:09;0.50;99.90
52471;DHT22;38382;53.160;7.026;2023-02-15T06:38:35;1.20;99.90
52471;DHT22;38382;53.160;7.026;2023-02-15T06:41:00;1.70;99.90
52471;DHT22;38382;53.160;7.026;2023-02-15T06:43:26;0.40;99.90
52471;DHT22;38382;53.160;7.026;2023-02-15T06:45:52;0.80;99.90
52471;DHT22;38382;53.160;7.026;2023-02-15T06:48:18;0.80;99.90
52471;DHT22;38382;53.160;7.026;2023-02-15T06:50:43;1.30;99.90
52471;DHT22;38382;53.160;7.026;2023-02-15T06:53:09;0.90;99.90
52471;DHT22;38382;53.160;7.026;2023-02-15T06:55:35;1.80;99.90
52471;DHT22;38382;53.160;7.026;2023-02-15T06:58:00;1.40;99.90
52471;DHT22;38382;53.160;7.026;2023-02-15T07:00:26;0.40;99.90
52471;DHT22;38382;53.160;7.026;2023-02-15T07:02:56;0.50;99.90
52471;DHT22;38382;53.160;7.026;2023-02-15T07:05:23;1.50;99.90
52471;DHT22;38382;53.160;7.026;2023-02-15T07:07:50;2.20;99.90
52471;DHT22;38382;53.160;7.026;2023-02-15T07:10:16;0.80;99.90
52471;DHT22;38382;53.160;7.026;2023-02-15T07:12:42;0.80;99.90
52471;DHT22;38382;53.160;7.026;2023-02-15T07:15:26;0.80;99.90
52471;DHT22;38382;53.160;7.026;2023-02-15T07:17:51;0.90;99.90
52471;DHT22;38382;53.160;7.026;2023-02-15T07:20:21;2.40;99.90
52471;DHT22;38382;53.160;7.026;2023-02-15T07:22:48;2.20;99.90
52471;DHT22;38382;53.160;7.026;2023-02-15T07:25:14;0.90;99.90
52471;DHT22;38382;53.160;7.026;2023-02-15T07:27:40;1.20;99.90
52471;DHT22;38382;53.160;7.026;2023-02-15T07:30:10;2.80;99.90
52471;DHT22;38382;53.160;7.026;2023-02-15T07:32:37;1.10;99.90
52471;DHT22;38382;53.160;7.026;2023-02-15T07:35:22;1.10;99.90
52471;DHT22;38382;53.160;7.026;2023-02-15T07:37:48;2.50;99.90
52471;DHT22;38382;53.160;7.026;2023-02-15T07:40:13;1.30;99.90
52471;DHT22;38382;53.160;7.026;2023-02-15T07:42:39;2.90;99.90
52471;DHT22;38382;53.160;7.026;2023-02-15T07:45:05;1.40;99.90
52471;DHT22;38382;53.160;7.026;2023-02-15T07:47:31;1.40;99.90
52471;DHT22;38382;53.160;7.026;2023-02-15T07:49:56;1.40;99.90
52471;DHT22;38382;53.160;7.026;2023-02-15T07:52:22;2.80;99.90
52471;DHT22;38382;53.160;7.026;2023-02-15T07:54:48;1.70;99.90
52471;DHT22;38382;53.160;7.026;2023-02-15T07:57:13;3.30;99.90
52471;DHT22;38382;53.160;7.026;2023-02-15T07:59:39;2.80;99.90
52471;DHT22;38382;53.160;7.026;2023-02-15T08:02:14;1.80;99.90
52471;DHT22;38382;53.160;7.026;2023-02-15T08:04:40;2.00;99.90
52471;DHT22;38382;53.160;7.026;2023-02-15T08:07:06;2.00;99.90
52471;DHT22;38382;53.160;7.026;2023-02-15T08:09:32;2.00;99.90
52471;DHT22;38382;53.160;7.026;2023-02-15T08:11:58;3.10;99.90
52471;DHT22;38382;53.160;7.026;2023-02-15T08:14:23;3.10;99.90
52471;DHT22;38382;53.160;7.026;2023-02-15T08:16:54;2.20;99.90
52471;DHT22;38382;53.160;7.026;2023-02-15T08:19:26;3.20;99.90
52471;DHT22;38382;53.160;7.026;2023-02-15T08:22:04;2.20;99.90
52471;DHT22;38382;53.160;7.026;2023-02-15T08:24:32;2.30;99.90
52471;DHT22;38382;53.160;7.026;2023-02-15T08:26:59;2.80;99.90
52471;DHT22;38382;53.160;7.026;2023-02-15T08:29:27;3.30;99.90
52471;DHT22;38382;53.160;7.026;2023-02-15T08:31:59;2.40;99.90
52471;DHT22;38382;53.160;7.026;2023-02-15T08:34:32;2.50;99.90
52471;DHT22;38382;53.160;7.026;2023-02-15T08:36:58;3.70;99.90
52471;DHT22;38382;53.160;7.026;2023-02-15T08:39:24;2.60;99.90
52471;DHT22;38382;53.160;7.026;2023-02-15T08:41:50;2.60;99.90
52471;DHT22;38382;53.160;7.026;2023-02-15T08:44:17;2.80;99.90
52471;DHT22;38382;53.160;7.026;2023-02-15T08:46:45;2.80;99.90
52471;DHT22;38382;53.160;7.026;2023-02-15T08:49:13;2.80;99.90
52471;DHT22;38382;53.160;7.026;2023-02-15T08:51:41;3.40;99.90
52471;DHT22;38382;53.160;7.026;2023-02-15T08:54:12;2.90;99.90
52471;DHT22;38382;53.160;7.026;2023-02-15T08:56:40;3.10;99.90
52471;DHT22;38382;53.160;7.026;2023-02-15T08:59:11;3.80;99.90
52471;DHT22;38382;53.160;7.026;2023-02-15T09:01:37;3.30;99.90
52471;DHT22;38382;53.160;7.026;2023-02-15T09:04:05;3.30;99.90
52471;DHT22;38382;53.160;7.026;2023-02-15T09:06:34;3.40;99.90
52471;DHT22;38382;53.160;7.026;2023-02-15T09:09:00;3.80;99.90
52471;DHT22;38382;53.160;7.026;2023-02-15T09:11:33;4.10;99.90
52471;DHT22;38382;53.160;7.026;2023-02-15T09:14:01;3.60;99.90
52471;DHT22;38382;53.160;7.026;2023-02-15T09:16:29;3.60;99.90
52471;DHT22;38382;53.160;7.026;2023-02-15T09:18:56;3.70;99.90
52471;DHT22;38382;53.160;7.026;2023-02-15T09:21:24;3.90;99.90
52471;DHT22;38382;53.160;7.026;2023-02-15T09:23:55;4.00;99.90
52471;DHT22;38382;53.160;7.026;2023-02-15T09:26:22;4.10;99.90
52471;DHT22;38382;53.160;7.026;2023-02-15T09:28:52;4.20;99.90
52471;DHT22;38382;53.160;7.026;2023-02-15T09:31:21;4.40;99.90
52471;DHT22;38382;53.160;7.026;2023-02-15T09:33:48;4.50;99.90
52471;DHT22;38382;53.160;7.026;2023-02-15T09:36:20;4.60;99.90
52471;DHT22;38382;53.160;7.026;2023-02-15T09:38:50;4.70;99.90
52471;DHT22;38382;53.160;7.026;2023-02-15T09:44:26;4.80;99.90
52471;DHT22;38382;53.160;7.026;2023-02-15T10:03:43;5.50;99.90
52471;DHT22;38382;53.160;7.026;2023-02-15T10:09:27;5.90;99.90
52471;DHT22;38382;53.160;7.026;2023-02-15T10:14:53;6.40;99.90
52471;DHT22;38382;53.160;7.026;2023-02-15T10:20:27;6.70;99.90
52471;DHT22;38382;53.160;7.026;2023-02-15T10:25:39;7.10;99.90
52471;DHT22;38382;53.160;7.026;2023-02-15T10:28:29;7.30;99.90
52471;DHT22;38382;53.160;7.026;2023-02-15T10:31:22;7.40;99.90
52471;DHT22;38382;53.160;7.026;2023-02-15T10:33:54;7.60;99.90
52471;DHT22;38382;53.160;7.026;2023-02-15T10:36:43;7.70;99.90
52471;DHT22;38382;53.160;7.026;2023-02-15T11:06:49;8.80;99.90
52471;DHT22;38382;53.160;7.026;2023-02-15T11:09:18;9.00;99.90
52471;DHT22;38382;53.160;7.026;2023-02-15T11:11:50;9.10;99.90
52471;DHT22;38382;53.160;7.026;2023-02-15T11:14:37;9.20;99.90
52471;DHT22;38382;53.160;7.026;2023-02-15T11:17:14;9.40;99.90
52471;DHT22;38382;53.160;7.026;2023-02-15T11:20:28;9.70;99.90
52471;DHT22;38382;53.160;7.026;2023-02-15T11:22:54;9.90;99.90
52471;DHT22;38382;53.160;7.026;2023-02-15T11:25:40;10.00;99.90
52471;DHT22;38382;53.160;7.026;2023-02-15T11:28:22;10.20;99.90
52471;DHT22;38382;53.160;7.026;2023-02-15T11:30:54;10.30;99.90
52471;DHT22;38382;53.160;7.026;2023-02-15T11:33:34;10.20;99.90
52471;DHT22;38382;53.160;7.026;2023-02-15T11:36:06;10.30;99.90
52471;DHT22;38382;53.160;7.026;2023-02-15T11:38:34;10.30;99.90
52471;DHT22;38382;53.160;7.026;2023-02-15T11:41:07;10.30;99.90
52471;DHT22;38382;53.160;7.026;2023-02-15T11:46:11;10.40;99.90
52471;DHT22;38382;53.160;7.026;2023-02-15T11:48:38;10.60;99.90
52471;DHT22;38382;53.160;7.026;2023-02-15T11:51:05;10.90;99.90
52471;DHT22;38382;53.160;7.026;2023-02-15T11:53:36;11.20;99.90
52471;DHT22;38382;53.160;7.026;2023-02-15T11:56:03;11.20;99.90
52471;DHT22;38382;53.160;7.026;2023-02-15T12:01:18;11.30;99.90
52471;DHT22;38382;53.160;7.026;2023-02-15T12:04:04;11.30;99.90
52471;DHT22;38382;53.160;7.026;2023-02-15T12:06:34;11.40;99.90
52471;DHT22;38382;53.160;7.026;2023-02-15T12:11:49;11.60;99.90
52471;DHT22;38382;53.160;7.026;2023-02-15T12:14:15;11.60;99.90
52471;DHT22;38382;53.160;7.026;2023-02-15T12:16:42;11.70;99.90
52471;DHT22;38382;53.160;7.026;2023-02-15T12:21:49;11.60;99.90
52471;DHT22;38382;53.160;7.026;2023-02-15T12:24:26;11.70;99.90
52471;DHT22;38382;53.160;7.026;2023-02-15T12:27:21;12.00;99.90
52471;DHT22;38382;53.160;7.026;2023-02-15T12:29:55;12.30;99.90
52471;DHT22;38382;53.160;7.026;2023-02-15T12:32:27;12.50;99.90
52471;DHT22;38382;53.160;7.026;2023-02-15T12:37:55;13.00;99.90
52471;DHT22;38382;53.160;7.026;2023-02-15T12:40:33;13.10;99.90
52471;DHT22;38382;53.160;7.026;2023-02-15T12:42:59;13.00;99.90
52471;DHT22;38382;53.160;7.026;2023-02-15T12:45:32;13.00;99.90
52471;DHT22;38382;53.160;7.026;2023-02-15T12:48:08;13.00;99.90
52471;DHT22;38382;53.160;7.026;2023-02-15T12:50:34;12.90;99.90
52471;DHT22;38382;53.160;7.026;2023-02-15T12:53:22;13.10;99.90
52471;DHT22;38382;53.160;7.026;2023-02-15T12:56:04;13.40;99.90
52471;DHT22;38382;53.160;7.026;2023-02-15T12:58:32;13.50;99.90
52471;DHT22;38382;53.160;7.026;2023-02-15T13:01:10;13.40;99.90
52471;DHT22;38382;53.160;7.026;2023-02-15T13:03:58;13.50;99.90
52471;DHT22;38382;53.160;7.026;2023-02-15T13:06:26;13.40;99.90
52471;DHT22;38382;53.160;7.026;2023-02-15T13:08:54;13.20;99.90
52471;DHT22;38382;53.160;7.026;2023-02-15T13:11:26;13.30;99.90
52471;DHT22;38382;53.160;7.026;2023-02-15T13:13:59;13.30;99.90
52471;DHT22;38382;53.160;7.026;2023-02-15T13:16:46;13.80;99.90
52471;DHT22;38382;53.160;7.026;2023-02-15T13:19:19;14.40;99.90
52471;DHT22;38382;53.160;7.026;2023-02-15T13:21:51;14.70;99.90
52471;DHT22;38382;53.160;7.026;2023-02-15T13:26:47;15.80;99.90
52471;DHT22;38382;53.160;7.026;2023-02-15T13:29:31;16.10;99.90
52471;DHT22;38382;53.160;7.026;2023-02-15T13:32:11;16.20;99.90
52471;DHT22;38382;53.160;7.026;2023-02-15T13:34:38;16.10;99.90
52471;DHT22;38382;53.160;7.026;2023-02-15T13:37:21;15.80;99.90
52471;DHT22;38382;53.160;7.026;2023-02-15T13:40:00;15.50;99.90
52471;DHT22;38382;53.160;7.026;2023-02-15T13:59:58;14.30;99.90
52471;DHT22;38382;53.160;7.026;2023-02-15T14:11:35;14.20;99.90
52471;DHT22;38382;53.160;7.026;2023-02-15T14:20:17;14.00;99.90
52471;DHT22;38382;53.160;7.026;2023-02-15T14:22:51;14.10;99.90
52471;DHT22;38382;53.160;7.026;2023-02-15T14:25:40;14.10;99.90
52471;DHT22;38382;53.160;7.026;2023-02-15T14:28:14;14.00;99.90
52471;DHT22;38382;53.160;7.026;2023-02-15T14:30:45;13.70;99.90
52471;DHT22;38382;53.160;7.026;2023-02-15T14:35:42;13.10;99.90
52471;DHT22;38382;53.160;7.026;2023-02-15T14:49:14;12.10;99.90
52471;DHT22;38382;53.160;7.026;2023-02-15T15:02:16;11.70;99.90
52471;DHT22;38382;53.160;7.026;2023-02-15T15:07:25;11.60;99.90
52471;DHT22;38382;53.160;7.026;2023-02-15T15:12:43;11.50;99.90
52471;DHT22;38382;53.160;7.026;2023-02-15T15:15:34;11.40;99.90
52471;DHT22;38382;53.160;7.026;2023-02-15T15:18:46;11.30;99.90
52471;DHT22;38382;53.160;7.026;2023-02-15T15:32:42;11.10;99.90
52471;DHT22;38382;53.160;7.026;2023-02-15T15:35:27;11.10;99.90
52471;DHT22;38382;53.160;7.026;2023-02-15T15:49:32;10.70;99.90
52471;DHT22;38382;53.160;7.026;2023-02-15T15:52:03;10.50;99.90
52471;DHT22;38382;53.160;7.026;2023-02-15T15:54:34;10.40;99.90
52471;DHT22;38382;53.160;7.026;2023-02-15T15:57:04;10.30;99.90
52471;DHT22;38382;53.160;7.026;2023-02-15T15:59:33;10.30;99.90
52471;DHT22;38382;53.160;7.026;2023-02-15T16:02:07;10.10;99.90
52471;DHT22;38382;53.160;7.026;2023-02-15T16:04:36;10.10;99.90
52471;DHT22;38382;53.160;7.026;2023-02-15T16:09:57;9.90;99.90
52471;DHT22;38382;53.160;7.026;2023-02-15T16:12:24;9.80;99.90
52471;DHT22;38382;53.160;7.026;2023-02-15T16:14:51;9.80;99.90
52471;DHT22;38382;53.160;7.026;2023-02-15T16:17:27;9.70;99.90
52471;DHT22;38382;53.160;7.026;2023-02-15T16:20:18;9.60;99.90
52471;DHT22;38382;53.160;7.026;2023-02-15T16:22:56;9.50;99.90
52471;DHT22;38382;53.160;7.026;2023-02-15T16:25:47;9.40;99.90
52471;DHT22;38382;53.160;7.026;2023-02-15T16:28:17;9.40;99.90
52471;DHT22;38382;53.160;7.026;2023-02-15T16:30:46;9.30;99.90
52471;DHT22;38382;53.160;7.026;2023-02-15T16:33:20;9.20;99.90
52471;DHT22;38382;53.160;7.026;2023-02-15T16:35:57;9.10;99.90
52471;DHT22;38382;53.160;7.026;2023-02-15T16:41:09;8.90;99.90
52471;DHT22;38382;53.160;7.026;2023-02-15T16:43:37;8.90;99.90
52471;DHT22;38382;53.160;7.026;2023-02-15T16:46:06;8.80;99.90
52471;DHT22;38382;53.160;7.026;2023-02-15T16:48:35;8.80;99.90
52471;DHT22;38382;53.160;7.026;2023-02-15T16:51:04;8.70;99.90
52471;DHT22;38382;53.160;7.026;2023-02-15T16:53:30;8.70;99.90
52471;DHT22;38382;53.160;7.026;2023-02-15T16:56:01;8.60;99.90
52471;DHT22;38382;53.160;7.026;2023-02-15T16:58:43;8.50;99.90
52471;DHT22;38382;53.160;7.026;2023-02-15T17:01:13;8.40;99.90
52471;DHT22;38382;53.160;7.026;2023-02-15T17:03:40;8.40;99.90
52471;DHT22;38382;53.160;7.026;2023-02-15T17:06:27;8.30;99.90
52471;DHT22;38382;53.160;7.026;2023-02-15T17:09:04;8.20;99.90
52471;DHT22;38382;53.160;7.026;2023-02-15T17:11:42;8.10;99.90
52471;DHT22;38382;53.160;7.026;2023-02-15T17:17:15;8.00;99.90
52471;DHT22;38382;53.160;7.026;2023-02-15T17:19:49;7.80;99.90
52471;DHT22;38382;53.160;7.026;2023-02-15T17:22:20;7.80;99.90
52471;DHT22;38382;53.160;7.026;2023-02-15T17:24:47;7.70;99.90
52471;DHT22;38382;53.160;7.026;2023-02-15T17:27:29;7.60;99.90
52471;DHT22;38382;53.160;7.026;2023-02-15T17:30:04;7.60;99.90
52471;DHT22;38382;53.160;7.026;2023-02-15T17:32:37;7.60;99.90
52471;DHT22;38382;53.160;7.026;2023-02-15T17:35:19;7.60;99.90
52471;DHT22;38382;53.160;7.026;2023-02-15T17:37:49;7.50;99.90
52471;DHT22;38382;53.160;7.026;2023-02-15T17:40:26;7.50;99.90
52471;DHT22;38382;53.160;7.026;2023-02-15T17:42:53;7.40;99.90
52471;DHT22;38382;53.160;7.026;2023-02-15T17:45:20;7.40;99.90
52471;DHT22;38382;53.160;7.026;2023-02-15T17:47:48;7.40;99.90
52471;DHT22;38382;53.160;7.026;2023-02-15T17:50:23;7.40;99.90
52471;DHT22;38382;53.160;7.026;2023-02-15T17:52:50;7.40;99.90
52471;DHT22;38382;53.160;7.026;2023-02-15T17:55:19;7.40;99.90
52471;DHT22;38382;53.160;7.026;2023-02-15T17:58:03;7.60;99.90
52471;DHT22;38382;53.160;7.026;2023-02-15T18:00:30;7.50;99.90
52471;DHT22;38382;53.160;7.026;2023-02-15T18:03:15;7.50;99.90
52471;DHT22;38382;53.160;7.026;2023-02-15T18:06:00;7.50;99.90
52471;DHT22;38382;53.160;7.026;2023-02-15T18:08:44;7.50;99.90
52471;DHT22;38382;53.160;7.026;2023-02-15T18:11:29;7.40;99.90
52471;DHT22;38382;53.160;7.026;2023-02-15T18:14:05;7.50;99.90
52471;DHT22;38382;53.160;7.026;2023-02-15T18:16:39;7.40;99.90
52471;DHT22;38382;53.160;7.026;2023-02-15T18:19:16;7.40;99.90
52471;DHT22;38382;53.160;7.026;2023-02-15T18:21:43;7.40;99.90
52471;DHT22;38382;53.160;7.026;2023-02-15T18:24:23;7.40;99.90
52471;DHT22;38382;53.160;7.026;2023-02-15T18:26:50;7.40;99.90
52471;DHT22;38382;53.160;7.026;2023-02-15T18:29:16;7.40;99.90
52471;DHT22;38382;53.160;7.026;2023-02-15T18:31:43;7.40;99.90
52471;DHT22;38382;53.160;7.026;2023-02-15T18:34:31;7.40;99.90
52471;DHT22;38382;53.160;7.026;2023-02-15T18:36:59;7.40;99.90
52471;DHT22;38382;53.160;7.026;2023-02-15T18:39:35;7.40;99.90
52471;DHT22;38382;53.160;7.026;2023-02-15T18:42:03;7.40;99.90
52471;DHT22;38382;53.160;7.026;2023-02-15T18:44:29;7.30;99.90
52471;DHT22;38382;53.160;7.026;2023-02-15T18:46:55;7.50;99.90
52471;DHT22;38382;53.160;7.026;2023-02-15T18:49:21;7.30;99.90
52471;DHT22;38382;53.160;7.026;2023-02-15T18:51:46;7.30;99.90
52471;DHT22;38382;53.160;7.026;2023-02-15T18:54:21;7.30;99.90
52471;DHT22;38382;53.160;7.026;2023-02-15T18:56:52;7.30;99.90
52471;DHT22;38382;53.160;7.026;2023-02-15T18:59:19;7.20;99.90
52471;DHT22;38382;53.160;7.026;2023-02-15T19:01:44;7.20;99.90
52471;DHT22;38382;53.160;7.026;2023-02-15T19:04:10;7.20;99.90
52471;DHT22;38382;53.160;7.026;2023-02-15T19:06:36;7.10;99.90
52471;DHT22;38382;53.160;7.026;2023-02-15T19:09:04;7.10;99.90
52471;DHT22;38382;53.160;7.026;2023-02-15T19:11:30;7.10;99.90
52471;DHT22;38382;53.160;7.026;2023-02-15T19:13:56;7.10;99.90
52471;DHT22;38382;53.160;7.026;2023-02-15T19:18:53;7.00;99.90
52471;DHT22;38382;53.160;7.026;2023-02-15T19:21:19;7.00;99.90
52471;DHT22;38382;53.160;7.026;2023-02-15T19:24:03;7.00;99.90
52471;DHT22;38382;53.160;7.026;2023-02-15T19:26:30;7.00;99.90
52471;DHT22;38382;53.160;7.026;2023-02-15T19:29:01;7.00;99.90
52471;DHT22;38382;53.160;7.026;2023-02-15T19:31:27;6.90;99.90